Time;durP1;ratioP1;P1;durP2;ratioP2;P2;SDS_P1;SDS_P2;PMS_P1;PMS_P2;Temp;Humidity;BMP_temperature;BMP_pressure;BME280_temperature;BME280_humidity;BME280_pressure;Samples;Min_cycle;Max_cycle;Signal;HPM_P1;HPM_P2
2023/03/17 00:00:51;;;;;;;4.80;2.45;;;8.60;62.40;;;;;;5066624;28;20511;-81
2023/03/17 00:03:21;;;;;;;5.20;2.10;;;8.60;62.50;;;;;;5062850;28;20896;-81
2023/03/17 00:05:49;;;;;;;4.45;2.10;;;8.60;62.50;;;;;;5068153;28;20140;-82
2023/03/17 00:08:21;;;;;;;5.13;2.35;;;8.60;62.60;;;;;;5051608;28;20132;-81
2023/03/17 00:10:48;;;;;;;5.28;2.35;;;8.60;62.70;;;;;;5068755;28;20514;-82
2023/03/17 00:13:16;;;;;;;4.40;2.20;;;8.60;62.70;;;;;;5067051;28;20504;-82
2023/03/17 00:15:44;;;;;;;4.70;2.30;;;8.60;62.60;;;;;;5068194;28;20045;-81
2023/03/17 00:18:15;;;;;;;4.95;2.00;;;8.60;62.70;;;;;;5068165;28;20385;-82
2023/03/17 00:20:42;;;;;;;4.85;2.10;;;8.60;62.70;;;;;;5084925;28;20176;-82
2023/03/17 00:23:15;;;;;;;5.32;2.10;;;8.60;62.70;;;;;;5069946;28;20053;-81
2023/03/17 00:25:44;;;;;;;5.82;2.50;;;8.60;62.50;;;;;;5051054;28;20080;-83
2023/03/17 00:28:17;;;;;;;5.27;2.10;;;8.60;62.50;;;;;;5049323;28;20057;-82
2023/03/17 00:30:45;;;;;;;6.85;2.50;;;8.60;62.60;;;;;;5066398;28;20055;-81
2023/03/17 00:33:14;;;;;;;7.15;2.45;;;8.60;62.60;;;;;;5068273;28;20055;-81
2023/03/17 00:35:44;;;;;;;5.40;2.40;;;8.60;62.50;;;;;;5068025;28;20392;-82
2023/03/17 00:38:15;;;;;;;6.07;2.20;;;8.60;62.30;;;;;;5068411;28;20051;-80
2023/03/17 00:40:44;;;;;;;5.77;2.23;;;8.60;62.30;;;;;;5071536;28;20400;-82
2023/03/17 00:43:13;;;;;;;5.00;2.30;;;8.60;62.20;;;;;;5054194;28;20146;-81
2023/03/17 00:45:40;;;;;;;5.80;2.38;;;8.60;62.20;;;;;;5049871;28;20294;-81
2023/03/17 00:48:13;;;;;;;4.97;2.22;;;8.60;62.20;;;;;;5051117;28;20048;-81
2023/03/17 00:50:43;;;;;;;5.22;2.30;;;8.60;62.10;;;;;;5050480;28;20657;-82
2023/03/17 00:53:12;;;;;;;5.37;2.20;;;8.60;62.00;;;;;;5067612;28;20704;-82
2023/03/17 00:55:39;;;;;;;5.05;2.08;;;8.60;62.00;;;;;;5057809;28;20045;-80
2023/03/17 00:58:13;;;;;;;6.32;2.22;;;8.60;62.10;;;;;;5071246;28;20132;-81
2023/03/17 01:00:40;;;;;;;4.97;2.10;;;8.60;62.00;;;;;;5067421;28;20059;-81
2023/03/17 01:03:11;;;;;;;4.90;2.38;;;8.60;62.00;;;;;;5049724;28;20049;-81
2023/03/17 01:05:40;;;;;;;5.47;2.00;;;8.60;62.20;;;;;;5050324;28;20053;-81
2023/03/17 01:08:09;;;;;;;5.13;2.00;;;8.60;62.20;;;;;;5050394;28;20052;-81
2023/03/17 01:10:36;;;;;;;5.10;2.22;;;8.60;62.20;;;;;;5067569;28;20446;-81
2023/03/17 01:13:04;;;;;;;5.07;2.25;;;8.60;62.20;;;;;;5054721;28;20053;-82
2023/03/17 01:15:34;;;;;;;5.10;2.15;;;8.50;62.20;;;;;;5050859;28;20381;-83
2023/03/17 01:18:01;;;;;;;6.10;2.30;;;8.50;62.30;;;;;;5050623;28;20048;-81
2023/03/17 01:20:31;;;;;;;5.65;2.30;;;8.50;62.40;;;;;;5050093;28;21036;-81
2023/03/17 01:22:59;;;;;;;7.03;2.38;;;8.50;62.40;;;;;;5067021;28;20049;-81
2023/03/17 01:25:27;;;;;;;6.03;2.10;;;8.50;62.40;;;;;;5068735;28;20553;-81
2023/03/17 01:27:56;;;;;;;5.53;2.40;;;8.50;62.50;;;;;;5068009;28;20538;-81
2023/03/17 01:30:26;;;;;;;4.93;2.20;;;8.50;62.50;;;;;;5087451;28;20045;-80
2023/03/17 01:32:55;;;;;;;4.57;1.90;;;8.50;62.40;;;;;;5049827;28;20049;-81
2023/03/17 01:35:23;;;;;;;5.32;2.28;;;8.50;62.20;;;;;;5050186;28;20135;-81
2023/03/17 01:37:51;;;;;;;5.53;2.10;;;8.50;62.20;;;;;;5065727;28;20503;-81
2023/03/17 01:40:21;;;;;;;5.55;2.35;;;8.50;62.30;;;;;;5049863;28;20113;-81
2023/03/17 01:42:52;;;;;;;4.97;2.30;;;8.50;62.30;;;;;;5065911;28;20045;-81
2023/03/17 01:45:56;;;;;;;5.45;2.33;;;8.50;62.20;;;;;;5046573;28;20057;-81
2023/03/17 01:48:25;;;;;;;7.05;2.42;;;8.50;62.40;;;;;;5055307;28;20057;-81
2023/03/17 01:50:53;;;;;;;6.53;2.35;;;8.50;62.40;;;;;;5064970;28;20138;-81
2023/03/17 01:53:22;;;;;;;6.28;2.25;;;8.50;62.40;;;;;;5044583;28;20061;-81
2023/03/17 01:55:51;;;;;;;5.83;2.33;;;8.50;62.30;;;;;;5064028;28;20124;-80
2023/03/17 01:58:21;;;;;;;4.70;2.28;;;8.50;62.20;;;;;;5065493;28;20135;-81
2023/03/17 02:00:49;;;;;;;5.18;2.22;;;8.50;62.30;;;;;;5046310;28;20511;-81
2023/03/17 02:03:16;;;;;;;5.75;2.33;;;8.50;62.40;;;;;;5051056;28;20060;-80
2023/03/17 02:05:47;;;;;;;5.07;2.00;;;8.50;62.30;;;;;;5072268;28;20107;-82
2023/03/17 02:08:16;;;;;;;5.87;2.53;;;8.50;62.20;;;;;;5069099;28;20048;-81
2023/03/17 02:10:45;;;;;;;5.00;2.25;;;8.50;62.20;;;;;;5052929;28;20045;-81
2023/03/17 02:13:15;;;;;;;5.93;2.33;;;8.50;62.20;;;;;;5051192;28;20055;-82
2023/03/17 02:15:45;;;;;;;6.00;2.40;;;8.50;62.20;;;;;;5069940;28;20542;-81
2023/03/17 02:18:13;;;;;;;5.32;1.80;;;8.50;62.40;;;;;;5070071;28;20080;-82
2023/03/17 02:21:30;;;;;;;5.73;2.07;;;8.50;62.20;;;;;;5071001;28;20064;-82
2023/03/17 02:24:00;;;;;;;6.38;2.50;;;8.50;62.20;;;;;;5070630;28;20052;-82
2023/03/17 02:26:31;;;;;;;6.30;2.38;;;8.50;62.10;;;;;;5069417;28;20499;-82
2023/03/17 02:28:58;;;;;;;5.38;2.15;;;8.50;62.20;;;;;;5052038;28;20083;-81
2023/03/17 02:31:26;;;;;;;6.63;2.15;;;8.40;62.20;;;;;;5052864;28;20143;-82
2023/03/17 02:33:53;;;;;;;6.83;2.30;;;8.40;62.30;;;;;;5053032;28;20053;-81
2023/03/17 02:36:21;;;;;;;7.15;2.80;;;8.40;62.30;;;;;;5069759;28;20049;-81
2023/03/17 02:38:48;;;;;;;5.60;2.10;;;8.40;62.30;;;;;;5063614;28;20517;-81
2023/03/17 02:41:16;;;;;;;5.32;2.30;;;8.40;62.40;;;;;;5052829;28;20692;-81
2023/03/17 02:43:43;;;;;;;5.55;2.30;;;8.40;62.40;;;;;;5069701;28;20060;-80
2023/03/17 02:46:10;;;;;;;5.63;2.37;;;8.40;62.50;;;;;;5067773;28;20088;-81
2023/03/17 02:48:39;;;;;;;6.18;2.22;;;8.40;62.50;;;;;;5052708;28;20053;-81
2023/03/17 02:51:06;;;;;;;6.30;2.45;;;8.40;62.50;;;;;;5069631;28;20235;-81
2023/03/17 02:53:33;;;;;;;5.45;2.60;;;8.40;62.70;;;;;;5069456;28;20799;-81
2023/03/17 02:56:01;;;;;;;6.97;2.40;;;8.40;62.60;;;;;;5079823;28;20586;-80
2023/03/17 02:58:29;;;;;;;6.00;2.30;;;8.40;62.70;;;;;;5072537;28;20139;-81
2023/03/17 03:00:57;;;;;;;5.03;2.05;;;8.40;62.60;;;;;;5069333;28;20069;-81
2023/03/17 03:03:25;;;;;;;6.03;2.47;;;8.40;62.60;;;;;;5067215;28;20057;-81
2023/03/17 03:05:52;;;;;;;6.25;2.28;;;8.40;62.60;;;;;;5052361;28;20140;-81
2023/03/17 03:08:19;;;;;;;5.57;2.42;;;8.40;62.50;;;;;;5069261;28;20504;-80
2023/03/17 03:10:46;;;;;;;4.43;2.10;;;8.30;62.50;;;;;;5069320;28;20138;-81
2023/03/17 03:13:13;;;;;;;5.07;2.40;;;8.30;62.60;;;;;;5083111;28;20098;-82
2023/03/17 03:15:43;;;;;;;6.90;2.40;;;8.30;62.60;;;;;;5052069;28;20128;-81
2023/03/17 03:18:11;;;;;;;5.22;2.25;;;8.30;62.70;;;;;;5068409;28;20629;-81
2023/03/17 03:20:38;;;;;;;6.05;2.50;;;8.30;62.80;;;;;;5067536;28;20045;-81
2023/03/17 03:23:05;;;;;;;6.50;2.13;;;8.30;62.80;;;;;;5068674;28;20057;-81
2023/03/17 03:25:32;;;;;;;7.35;2.20;;;8.30;62.60;;;;;;5052271;28;20140;-80
2023/03/17 03:27:59;;;;;;;4.97;2.20;;;8.30;62.70;;;;;;5069184;28;20108;-81
2023/03/17 03:30:26;;;;;;;5.68;2.42;;;8.30;62.60;;;;;;5034298;28;20463;-79
2023/03/17 03:32:54;;;;;;;4.72;2.30;;;8.30;62.50;;;;;;5083117;28;20132;-81
2023/03/17 03:35:21;;;;;;;5.93;2.20;;;8.30;62.50;;;;;;5068736;28;20572;-81
2023/03/17 03:37:48;;;;;;;5.82;2.30;;;8.30;62.40;;;;;;5067082;28;20052;-81
2023/03/17 03:40:15;;;;;;;5.97;2.35;;;8.30;62.40;;;;;;5068237;28;20160;-81
2023/03/17 03:42:42;;;;;;;5.07;2.10;;;8.30;62.50;;;;;;5068187;28;20057;-80
2023/03/17 03:45:10;;;;;;;5.05;2.03;;;8.30;62.40;;;;;;5074582;28;20102;-81
2023/03/17 03:47:37;;;;;;;5.43;1.90;;;8.30;62.50;;;;;;5080811;28;20554;-81
2023/03/17 03:50:07;;;;;;;5.22;2.25;;;8.30;62.60;;;;;;5068242;28;20045;-81
2023/03/17 03:52:34;;;;;;;4.93;1.98;;;8.30;62.60;;;;;;5068601;28;20503;-81
2023/03/17 03:55:01;;;;;;;6.38;2.70;;;8.30;62.50;;;;;;5069803;28;20072;-79
2023/03/17 03:57:28;;;;;;;5.05;2.20;;;8.30;62.50;;;;;;5068409;28;20128;-80
2023/03/17 03:59:55;;;;;;;5.73;2.10;;;8.30;62.50;;;;;;5051491;28;20059;-81
2023/03/17 04:02:22;;;;;;;5.78;2.25;;;8.30;62.30;;;;;;5050941;28;20084;-81
2023/03/17 04:04:49;;;;;;;5.70;2.15;;;8.20;62.40;;;;;;5074612;28;20099;-81
2023/03/17 04:07:17;;;;;;;5.35;2.28;;;8.20;62.60;;;;;;5085413;28;20181;-81
2023/03/17 04:09:44;;;;;;;5.18;2.13;;;8.20;62.70;;;;;;5068087;28;20284;-80
2023/03/17 04:12:11;;;;;;;5.43;2.30;;;8.20;62.70;;;;;;5067319;28;20056;-82
2023/03/17 04:14:38;;;;;;;5.85;2.03;;;8.20;62.70;;;;;;5068105;28;20053;-81
2023/03/17 04:17:05;;;;;;;6.50;2.20;;;8.30;62.50;;;;;;5067829;28;20091;-81
2023/03/17 04:19:32;;;;;;;5.25;2.28;;;8.20;62.50;;;;;;5068049;28;20056;-80
2023/03/17 04:22:00;;;;;;;6.03;2.45;;;8.20;62.60;;;;;;5076919;28;20123;-81
2023/03/17 04:24:28;;;;;;;7.17;2.50;;;8.20;62.60;;;;;;5068020;28;20156;-81
2023/03/17 04:26:56;;;;;;;6.25;2.10;;;8.20;62.50;;;;;;5050778;28;20272;-81
2023/03/17 04:29:23;;;;;;;6.53;2.47;;;8.20;62.50;;;;;;5045545;28;20423;-81
2023/03/17 04:31:50;;;;;;;5.70;2.20;;;8.20;62.60;;;;;;5050351;28;20460;-82
2023/03/17 04:34:18;;;;;;;6.38;2.60;;;8.20;62.60;;;;;;5067805;28;20053;-81
2023/03/17 04:36:46;;;;;;;5.53;2.00;;;8.20;62.60;;;;;;5067738;28;20485;-80
2023/03/17 04:39:14;;;;;;;5.28;2.22;;;8.20;62.50;;;;;;5062346;28;20139;-81
2023/03/17 04:41:42;;;;;;;5.55;1.98;;;8.20;62.50;;;;;;5085245;28;20071;-81
2023/03/17 04:44:09;;;;;;;5.97;2.00;;;8.20;62.40;;;;;;5067510;28;20482;-81
2023/03/17 04:46:37;;;;;;;5.57;2.25;;;8.20;62.50;;;;;;5057775;28;20107;-82
2023/03/17 04:49:04;;;;;;;5.03;2.30;;;8.20;62.50;;;;;;5067337;28;20081;-80
2023/03/17 04:51:31;;;;;;;5.20;2.10;;;8.20;62.40;;;;;;5067572;28;20503;-80
2023/03/17 04:53:59;;;;;;;6.53;2.15;;;8.20;62.50;;;;;;5071978;28;20095;-82
2023/03/17 04:56:26;;;;;;;5.38;1.92;;;8.20;62.50;;;;;;5079180;28;20049;-80
2023/03/17 04:58:54;;;;;;;5.57;2.10;;;8.20;62.50;;;;;;5067238;28;20172;-81
2023/03/17 05:01:21;;;;;;;6.30;2.07;;;8.20;62.50;;;;;;5067257;28;20572;-80
2023/03/17 05:03:48;;;;;;;6.82;2.22;;;8.20;62.50;;;;;;5065691;28;20049;-81
2023/03/17 05:06:16;;;;;;;5.80;2.30;;;8.20;62.50;;;;;;5066956;28;20133;-81
2023/03/17 05:08:44;;;;;;;7.35;2.42;;;8.20;62.50;;;;;;5050333;28;20569;-80
2023/03/17 05:11:11;;;;;;;6.13;2.10;;;8.20;62.50;;;;;;5066889;28;20053;-81
2023/03/17 05:13:39;;;;;;;4.93;1.80;;;8.20;62.50;;;;;;5083204;28;20609;-81
2023/03/17 05:16:09;;;;;;;6.15;2.20;;;8.20;62.50;;;;;;5082986;28;20051;-81
2023/03/17 05:18:37;;;;;;;4.43;2.10;;;8.20;62.60;;;;;;5067285;28;20065;-81
2023/03/17 05:21:05;;;;;;;5.13;2.13;;;8.20;62.70;;;;;;5065368;28;20064;-81
2023/03/17 05:23:32;;;;;;;5.43;2.38;;;8.20;62.70;;;;;;5066849;28;20068;-80
2023/03/17 05:25:58;;;;;;;4.87;2.03;;;8.20;62.70;;;;;;5050038;28;20192;-80
2023/03/17 05:28:26;;;;;;;5.75;2.10;;;8.20;62.70;;;;;;5066933;28;20049;-82
2023/03/17 05:30:53;;;;;;;6.63;2.80;;;8.20;62.70;;;;;;5066725;28;20061;-82
2023/03/17 05:33:22;;;;;;;6.70;2.60;;;8.30;62.60;;;;;;5067168;28;20049;-82
2023/03/17 05:35:49;;;;;;;5.32;2.35;;;8.30;62.50;;;;;;5066847;28;20060;-81
2023/03/17 05:38:16;;;;;;;5.73;2.60;;;8.30;62.60;;;;;;5059582;28;20049;-83
2023/03/17 05:40:43;;;;;;;5.72;2.35;;;8.20;62.60;;;;;;5049950;28;20049;-82
2023/03/17 05:43:10;;;;;;;5.45;2.50;;;8.20;62.70;;;;;;5053193;28;20084;-82
2023/03/17 05:45:38;;;;;;;5.45;2.22;;;8.20;62.80;;;;;;5066861;28;20053;-82
2023/03/17 05:48:05;;;;;;;6.20;2.38;;;8.20;62.80;;;;;;5070202;28;20084;-81
2023/03/17 05:50:33;;;;;;;7.13;2.60;;;8.20;62.90;;;;;;5068391;28;20064;-81
2023/03/17 05:53:00;;;;;;;5.90;2.60;;;8.20;62.90;;;;;;5049111;28;20048;-82
2023/03/17 05:55:28;;;;;;;6.03;2.45;;;8.20;63.00;;;;;;5037773;28;20053;-81
2023/03/17 05:57:55;;;;;;;5.65;2.60;;;8.20;63.00;;;;;;5069403;28;20587;-80
2023/03/17 06:00:23;;;;;;;6.60;2.40;;;8.20;63.00;;;;;;5069372;28;20049;-82
2023/03/17 06:02:50;;;;;;;6.67;2.33;;;8.20;63.00;;;;;;5087556;28;20044;-79
2023/03/17 06:05:17;;;;;;;4.93;2.15;;;8.20;63.00;;;;;;5077273;28;20195;-81
2023/03/17 06:07:45;;;;;;;4.93;2.20;;;8.30;63.00;;;;;;5070230;28;20120;-82
2023/03/17 06:10:12;;;;;;;5.68;2.35;;;8.20;63.10;;;;;;5069535;28;20510;-81
2023/03/17 06:12:39;;;;;;;5.47;2.53;;;8.20;63.10;;;;;;5069999;28;20076;-81
2023/03/17 06:15:08;;;;;;;6.30;2.40;;;8.20;63.20;;;;;;5049991;28;20115;-82
2023/03/17 06:17:35;;;;;;;5.68;2.40;;;8.30;63.20;;;;;;5064096;28;20055;-82
2023/03/17 06:20:04;;;;;;;5.15;2.35;;;8.30;63.20;;;;;;5050796;28;20045;-83
2023/03/17 06:22:31;;;;;;;7.63;2.72;;;8.30;63.30;;;;;;5067769;28;20122;-82
2023/03/17 06:25:00;;;;;;;7.15;2.75;;;8.30;63.20;;;;;;5059910;28;20604;-81
2023/03/17 06:27:27;;;;;;;9.37;2.60;;;8.30;63.30;;;;;;5067768;28;20056;-83
2023/03/17 06:29:53;;;;;;;5.82;2.60;;;8.30;63.30;;;;;;5049224;28;20135;-81
2023/03/17 06:32:20;;;;;;;6.22;2.47;;;8.30;63.40;;;;;;5047631;28;20128;-82
2023/03/17 06:34:48;;;;;;;6.53;2.80;;;8.30;63.50;;;;;;5064760;28;20133;-82
2023/03/17 06:37:15;;;;;;;8.52;2.33;;;8.40;63.50;;;;;;5063972;28;20056;-82
2023/03/17 06:39:42;;;;;;;5.80;2.47;;;8.40;63.50;;;;;;5054019;28;20570;-81
2023/03/17 06:42:10;;;;;;;7.35;2.40;;;8.40;63.40;;;;;;5069463;28;20091;-82
2023/03/17 06:44:37;;;;;;;6.72;2.55;;;8.40;63.40;;;;;;5060993;28;20057;-82
2023/03/17 06:47:04;;;;;;;5.68;2.60;;;8.50;63.40;;;;;;5061488;28;20053;-82
2023/03/17 06:49:32;;;;;;;5.20;2.50;;;8.50;63.50;;;;;;5046918;28;20049;-82
2023/03/17 06:51:59;;;;;;;5.77;2.50;;;8.50;63.60;;;;;;5052098;28;20081;-82
2023/03/17 06:54:26;;;;;;;5.22;2.42;;;8.50;63.60;;;;;;5054439;28;20048;-81
2023/03/17 06:56:53;;;;;;;6.30;2.70;;;8.50;63.60;;;;;;5051972;28;20049;-82
2023/03/17 06:59:23;;;;;;;6.05;2.63;;;8.50;63.50;;;;;;5066002;28;20072;-80
2023/03/17 07:01:50;;;;;;;4.47;2.10;;;8.60;63.40;;;;;;5069306;28;20053;-80
2023/03/17 07:04:18;;;;;;;5.43;2.43;;;8.60;63.30;;;;;;5063696;28;20515;-82
2023/03/17 07:06:45;;;;;;;7.05;2.25;;;8.60;63.30;;;;;;5068834;28;20053;-82
2023/03/17 07:09:12;;;;;;;6.07;2.20;;;8.60;63.40;;;;;;5068398;28;20133;-81
2023/03/17 07:11:40;;;;;;;5.30;2.40;;;8.60;63.40;;;;;;5052825;28;20167;-83
2023/03/17 07:14:07;;;;;;;6.28;2.70;;;8.60;63.50;;;;;;5072551;28;20070;-84
2023/03/17 07:16:36;;;;;;;5.80;2.60;;;8.60;63.50;;;;;;5069267;28;20057;-84
2023/03/17 07:19:04;;;;;;;5.30;2.55;;;8.60;63.60;;;;;;5048737;28;20053;-85
2023/03/17 07:21:31;;;;;;;6.68;2.53;;;8.60;63.60;;;;;;5046464;28;20519;-85
2023/03/17 07:23:58;;;;;;;5.07;2.67;;;8.70;63.60;;;;;;5050685;28;20136;-85
2023/03/17 07:26:25;;;;;;;6.30;2.30;;;8.70;63.60;;;;;;5067264;28;20056;-82
2023/03/17 07:28:52;;;;;;;5.97;2.70;;;8.70;63.70;;;;;;5067269;28;20056;-84
2023/03/17 07:31:19;;;;;;;7.15;2.72;;;8.80;63.70;;;;;;5050226;28;20084;-83
2023/03/17 07:33:47;;;;;;;7.35;2.85;;;8.80;63.70;;;;;;5049772;28;20057;-82
2023/03/17 07:36:14;;;;;;;6.30;2.70;;;8.80;63.80;;;;;;5063700;28;20147;-82
2023/03/17 07:38:42;;;;;;;8.23;3.30;;;8.80;63.80;;;;;;5047672;28;20232;-81
2023/03/17 07:41:09;;;;;;;6.20;2.67;;;8.80;63.70;;;;;;5060413;28;20045;-81
2023/03/17 07:43:37;;;;;;;5.28;2.50;;;8.90;63.90;;;;;;5063473;28;20474;-82
2023/03/17 07:46:05;;;;;;;6.90;3.10;;;8.90;63.90;;;;;;5061933;28;20045;-82
2023/03/17 07:48:32;;;;;;;6.90;2.85;;;8.90;63.90;;;;;;5074149;28;20056;-83
2023/03/17 07:51:00;;;;;;;5.63;2.60;;;8.90;63.90;;;;;;5066219;28;20057;-81
2023/03/17 07:53:28;;;;;;;6.03;2.67;;;8.90;63.70;;;;;;5067245;28;20052;-83
2023/03/17 07:55:55;;;;;;;6.47;2.50;;;9.00;63.80;;;;;;5064701;28;20123;-83
2023/03/17 07:58:22;;;;;;;6.32;2.65;;;9.00;63.70;;;;;;5048936;28;20172;-81
2023/03/17 08:00:49;;;;;;;5.72;2.35;;;9.00;63.70;;;;;;5049207;28;20048;-83
2023/03/17 08:03:16;;;;;;;5.68;2.60;;;9.00;63.70;;;;;;5066646;28;20163;-83
2023/03/17 08:05:43;;;;;;;5.47;2.33;;;9.00;64.00;;;;;;5065156;28;20049;-82
2023/03/17 08:08:11;;;;;;;5.75;2.47;;;9.00;63.90;;;;;;5067232;28;20507;-82
2023/03/17 08:10:39;;;;;;;5.20;2.20;;;9.00;64.00;;;;;;5050881;28;20853;-83
2023/03/17 08:13:06;;;;;;;7.90;2.70;;;9.10;64.00;;;;;;5066041;28;20590;-83
2023/03/17 08:15:33;;;;;;;5.13;1.80;;;9.20;64.00;;;;;;5058729;28;20100;-83
2023/03/17 08:18:00;;;;;;;6.00;2.30;;;9.20;64.10;;;;;;5067693;28;20056;-83
2023/03/17 08:20:28;;;;;;;5.32;2.70;;;9.20;64.00;;;;;;5062220;28;20057;-84
2023/03/17 08:22:55;;;;;;;5.15;2.50;;;9.20;63.80;;;;;;5066799;28;20223;-81
2023/03/17 08:25:24;;;;;;;4.90;2.20;;;9.40;63.50;;;;;;5049723;28;20152;-84
2023/03/17 08:27:51;;;;;;;7.22;2.90;;;9.40;63.30;;;;;;5038769;28;20057;-87
2023/03/17 08:30:19;;;;;;;7.20;3.10;;;9.40;63.20;;;;;;5049538;28;20132;-85
2023/03/17 08:32:46;;;;;;;7.43;2.70;;;9.50;63.20;;;;;;5049066;28;20052;-86
2023/03/17 08:35:15;;;;;;;6.32;2.97;;;9.50;63.30;;;;;;5048496;28;20123;-84
2023/03/17 08:37:42;;;;;;;6.28;3.20;;;9.60;63.10;;;;;;5059819;28;20132;-83
2023/03/17 08:40:12;;;;;;;7.40;2.70;;;9.60;63.20;;;;;;5045139;28;20129;-87
2023/03/17 08:42:40;;;;;;;7.20;3.20;;;9.60;63.30;;;;;;5049892;28;20098;-89
2023/03/17 08:45:12;;;;;;;8.48;2.80;;;9.70;63.40;;;;;;5057085;28;20061;-90
2023/03/17 08:47:39;;;;;;;8.82;3.40;;;9.70;63.30;;;;;;5052359;28;20057;-87
2023/03/17 08:50:12;;;;;;;8.98;3.13;;;9.80;63.10;;;;;;5049173;28;20076;-85
2023/03/17 08:52:39;;;;;;;7.88;3.20;;;9.80;63.10;;;;;;5065775;28;20154;-85
2023/03/17 08:55:07;;;;;;;6.90;2.60;;;9.90;62.80;;;;;;5044221;28;20136;-82
2023/03/17 08:57:35;;;;;;;5.53;2.85;;;10.00;62.70;;;;;;5059708;28;20589;-82
2023/03/17 09:00:09;;;;;;;6.43;3.30;;;10.00;62.70;;;;;;5062855;28;20137;-82
2023/03/17 09:02:36;;;;;;;5.63;3.13;;;10.00;62.50;;;;;;5048841;28;20523;-84
2023/03/17 09:05:04;;;;;;;7.43;3.60;;;10.10;62.20;;;;;;5055643;28;20053;-84
2023/03/17 09:07:30;;;;;;;7.67;3.20;;;10.20;62.20;;;;;;5063032;28;20786;-83
2023/03/17 09:09:57;;;;;;;7.97;3.90;;;10.20;62.10;;;;;;5056335;28;20111;-85
2023/03/17 09:12:24;;;;;;;9.00;3.33;;;10.30;61.90;;;;;;5063171;28;20495;-83
2023/03/17 09:14:54;;;;;;;7.43;3.67;;;10.30;62.10;;;;;;5065983;28;20057;-88
2023/03/17 09:17:23;;;;;;;5.78;3.20;;;10.40;62.20;;;;;;5052642;28;20056;-83
2023/03/17 09:19:50;;;;;;;7.80;3.30;;;10.40;62.40;;;;;;5048500;28;20041;-84
2023/03/17 09:22:18;;;;;;;7.00;3.47;;;10.50;62.30;;;;;;5050066;28;20080;-83
2023/03/17 09:24:45;;;;;;;7.18;3.42;;;10.50;62.50;;;;;;5047050;28;20057;-84
2023/03/17 09:27:12;;;;;;;7.10;3.05;;;10.60;62.30;;;;;;5064867;28;20128;-84
2023/03/17 09:29:41;;;;;;;7.07;3.28;;;10.60;62.50;;;;;;5068238;28;20596;-84
2023/03/17 09:32:08;;;;;;;5.93;3.00;;;10.70;62.70;;;;;;5053435;28;20140;-83
2023/03/17 09:34:36;;;;;;;5.95;2.78;;;10.70;62.90;;;;;;5064294;28;20041;-83
2023/03/17 09:37:03;;;;;;;6.28;2.95;;;10.80;62.80;;;;;;5065367;28;20287;-84
2023/03/17 09:39:30;;;;;;;6.03;2.80;;;10.90;62.70;;;;;;5066692;28;20148;-85
2023/03/17 09:42:07;;;;;;;6.47;2.70;;;11.00;62.50;;;;;;5066791;28;20103;-84
2023/03/17 09:44:55;;;;;;;6.73;2.90;;;11.10;62.30;;;;;;5053239;28;20717;-86
2023/03/17 09:47:44;;;;;;;6.90;2.50;;;11.10;62.10;;;;;;5065997;28;20065;-84
2023/03/17 09:50:18;;;;;;;6.90;2.90;;;11.30;61.60;;;;;;5067820;28;20049;-85
2023/03/17 09:52:46;;;;;;;7.00;3.00;;;11.40;61.60;;;;;;5073914;28;20060;-85
2023/03/17 09:55:25;;;;;;;7.00;2.92;;;11.50;60.90;;;;;;5052120;28;20143;-86
2023/03/17 09:57:54;;;;;;;5.10;2.60;;;11.70;60.50;;;;;;5044186;28;20049;-83
2023/03/17 10:00:26;;;;;;;6.18;3.10;;;11.70;60.50;;;;;;5070041;28;20144;-83
2023/03/17 10:02:54;;;;;;;5.68;3.00;;;11.90;60.80;;;;;;5068858;28;20465;-84
2023/03/17 10:05:25;;;;;;;5.63;2.70;;;11.90;60.70;;;;;;5066100;28;20144;-86
2023/03/17 10:08:01;;;;;;;6.10;2.90;;;12.00;60.70;;;;;;5050225;28;20069;-85
2023/03/17 10:10:35;;;;;;;6.77;2.87;;;12.00;60.70;;;;;;5050089;28;20507;-85
2023/03/17 10:13:09;;;;;;;6.18;2.90;;;12.10;60.20;;;;;;5049914;28;20141;-84
2023/03/17 10:15:42;;;;;;;7.68;2.90;;;12.20;60.40;;;;;;5050442;28;20054;-84
2023/03/17 10:18:11;;;;;;;6.10;3.00;;;12.30;60.50;;;;;;5066476;28;20049;-83
2023/03/17 10:20:46;;;;;;;6.35;3.10;;;12.40;60.40;;;;;;5062581;28;20045;-84
2023/03/17 10:23:16;;;;;;;7.57;3.50;;;12.50;59.80;;;;;;5063755;28;20531;-83
2023/03/17 10:25:43;;;;;;;5.97;2.63;;;12.50;60.20;;;;;;5049888;28;20534;-83
2023/03/17 10:28:27;;;;;;;6.10;3.53;;;12.60;59.90;;;;;;5067450;28;20056;-85
2023/03/17 10:30:55;;;;;;;7.55;3.15;;;12.70;60.00;;;;;;5072770;28;20088;-85
2023/03/17 10:33:22;;;;;;;6.75;3.17;;;12.80;60.10;;;;;;5053410;28;20084;-83
2023/03/17 10:35:50;;;;;;;6.40;2.80;;;12.90;60.30;;;;;;5070162;28;20076;-85
2023/03/17 10:38:20;;;;;;;8.63;3.45;;;13.00;60.30;;;;;;5068902;28;20405;-84
2023/03/17 10:40:55;;;;;;;6.45;3.25;;;13.10;60.30;;;;;;5069704;28;20049;-85
2023/03/17 10:43:23;;;;;;;6.05;3.10;;;13.10;60.00;;;;;;5053375;28;20068;-83
2023/03/17 10:45:59;;;;;;;6.45;3.00;;;13.30;60.00;;;;;;5053042;28;20061;-84
2023/03/17 10:48:28;;;;;;;6.07;2.63;;;13.30;60.10;;;;;;5064334;28;20075;-85
2023/03/17 10:50:58;;;;;;;5.97;2.80;;;13.50;59.80;;;;;;5073152;28;20587;-85
2023/03/17 10:53:27;;;;;;;6.32;3.00;;;13.50;59.60;;;;;;5072927;28;20075;-85
2023/03/17 10:55:58;;;;;;;5.03;2.65;;;13.60;60.00;;;;;;5070837;28;20537;-84
2023/03/17 10:58:37;;;;;;;6.05;3.30;;;13.70;59.80;;;;;;5053080;28;20088;-84
2023/03/17 11:01:07;;;;;;;6.43;3.30;;;13.90;59.40;;;;;;5049417;28;20576;-86
2023/03/17 11:03:38;;;;;;;6.63;2.90;;;13.90;58.50;;;;;;5049347;28;20103;-84
2023/03/17 11:06:08;;;;;;;6.18;2.97;;;14.00;58.60;;;;;;5061824;28;20055;-85
2023/03/17 11:08:39;;;;;;;5.60;2.83;;;14.00;59.00;;;;;;5058657;28;20057;-85
2023/03/17 11:11:10;;;;;;;6.22;2.97;;;14.10;58.70;;;;;;5052323;28;20053;-87
2023/03/17 11:13:37;;;;;;;6.43;3.27;;;14.20;58.50;;;;;;5050927;28;20053;-84
2023/03/17 11:16:10;;;;;;;6.75;3.03;;;14.20;59.00;;;;;;5051626;28;20422;-86
2023/03/17 11:18:39;;;;;;;7.90;2.92;;;14.30;58.90;;;;;;5042422;28;20062;-84
2023/03/17 11:21:10;;;;;;;6.95;3.53;;;14.40;58.80;;;;;;5060253;28;20048;-85
2023/03/17 11:23:50;;;;;;;6.53;3.33;;;14.50;58.90;;;;;;5057393;28;20053;-86
2023/03/17 11:26:42;;;;;;;7.20;3.40;;;14.60;58.30;;;;;;5052777;28;20049;-85
2023/03/17 11:29:39;;;;;;;9.13;3.70;;;14.60;58.30;;;;;;5067822;28;20126;-86
2023/03/17 11:32:22;;;;;;;7.93;3.78;;;14.70;58.20;;;;;;5061293;28;20210;-85
2023/03/17 11:35:02;;;;;;;7.28;3.63;;;14.90;57.10;;;;;;5066546;28;20057;-87
2023/03/17 11:37:49;;;;;;;6.85;3.35;;;14.90;57.20;;;;;;5059157;28;20144;-85
2023/03/17 11:40:25;;;;;;;8.63;3.50;;;15.00;58.00;;;;;;5048460;28;20061;-85
2023/03/17 11:43:07;;;;;;;7.55;3.63;;;15.10;57.90;;;;;;5052137;28;20053;-85
2023/03/17 11:45:43;;;;;;;7.95;3.63;;;15.20;57.00;;;;;;5037669;28;20045;-86
2023/03/17 11:48:20;;;;;;;7.53;3.80;;;15.30;57.30;;;;;;5052183;28;20134;-85
2023/03/17 11:50:55;;;;;;;7.40;3.80;;;15.40;56.60;;;;;;5052437;28;20500;-86
2023/03/17 11:53:46;;;;;;;7.10;3.30;;;15.40;55.90;;;;;;5050519;28;20069;-84
2023/03/17 11:56:18;;;;;;;8.68;3.67;;;15.50;56.10;;;;;;5048941;28;20077;-85
2023/03/17 11:58:49;;;;;;;6.80;3.75;;;15.50;55.30;;;;;;5068058;28;20040;-86
2023/03/17 12:01:25;;;;;;;6.13;3.30;;;15.60;55.50;;;;;;5089027;28;20080;-85
2023/03/17 12:04:03;;;;;;;7.80;3.75;;;15.60;55.80;;;;;;5079519;28;20053;-85
2023/03/17 12:06:33;;;;;;;7.70;3.33;;;15.60;56.40;;;;;;5043384;28;20060;-84
2023/03/17 12:09:06;;;;;;;7.13;3.80;;;15.60;56.30;;;;;;5050413;28;20044;-86
2023/03/17 12:11:38;;;;;;;7.70;3.60;;;15.80;56.20;;;;;;5065568;28;20068;-88
2023/03/17 12:14:11;;;;;;;6.20;3.80;;;15.80;54.90;;;;;;5056805;28;21020;-85
2023/03/17 12:16:44;;;;;;;9.30;4.15;;;15.80;55.30;;;;;;5061566;28;20190;-85
2023/03/17 12:19:16;;;;;;;7.73;3.57;;;15.80;55.50;;;;;;5061343;28;20533;-85
2023/03/17 12:21:51;;;;;;;7.40;3.70;;;15.80;56.20;;;;;;5051273;28;20199;-86
2023/03/17 12:24:27;;;;;;;6.60;3.60;;;15.80;56.20;;;;;;5051451;28;20053;-84
2023/03/17 12:26:58;;;;;;;7.97;3.92;;;15.90;55.50;;;;;;5051594;28;20088;-85
2023/03/17 12:29:39;;;;;;;8.38;3.95;;;15.90;55.40;;;;;;5043365;28;20416;-85
2023/03/17 12:32:11;;;;;;;8.53;4.50;;;16.00;55.40;;;;;;5043652;28;20511;-86
2023/03/17 12:34:45;;;;;;;7.93;3.85;;;16.00;55.90;;;;;;5068488;28;20076;-85
2023/03/17 12:37:13;;;;;;;8.55;4.03;;;16.00;55.70;;;;;;5064067;28;20053;-86
2023/03/17 12:39:49;;;;;;;7.43;4.03;;;16.00;55.70;;;;;;5063025;28;20052;-91
2023/03/17 12:42:34;;;;;;;8.10;4.07;;;16.00;55.50;;;;;;5065353;28;20111;-87
2023/03/17 12:45:22;;;;;;;6.27;2.30;;;16.00;55.70;;;;;;5044038;28;20053;-83
2023/03/17 12:48:10;;;;;;;8.15;4.03;;;16.00;55.70;;;;;;5059802;28;20732;-85
2023/03/17 12:51:22;;;;;;;7.15;3.78;;;16.00;55.50;;;;;;5068498;28;20081;-89
2023/03/17 12:53:50;;;;;;;8.25;4.15;;;15.80;55.90;;;;;;5029628;28;20119;-85
2023/03/17 12:56:22;;;;;;;6.85;4.10;;;15.80;56.30;;;;;;5068130;28;20350;-87
2023/03/17 12:58:52;;;;;;;7.83;3.90;;;15.80;55.10;;;;;;5050854;28;20103;-84
2023/03/17 13:01:31;;;;;;;8.52;4.10;;;15.80;55.60;;;;;;5060133;28;20503;-89
2023/03/17 13:04:13;;;;;;;8.23;4.25;;;15.80;55.00;;;;;;5063117;28;20161;-88
2023/03/17 13:06:47;;;;;;;7.75;3.83;;;15.60;55.80;;;;;;5049166;28;20058;-88